Página principal
METAR-TAF:

METAR-TAF

Aeroportos :

Aeroporto Internacional de Guilin Liangjiang

Guilin, China

latitude: 25-20N, longitude: 110-18E, altura: 166 m

Observação actual do tempo

O boletim foi feito há 23 minutos, às 07:00 UTC
Vento 4 kt de es-nordeste, variando entre norte e su-sudeste
Temperatura 5°C
Humidade 87%
Pressão 1024 hPa
Visibilidade: 5000 m
Poucas nuvensa uma altura de 500 ft
Nuvens dispersasa uma altura de 2000 ft
Encobertoa uma altura de 3300 ft
chuva fraca, neblina

METAR: ZGKL 100700Z 06002MPS 010V160 5000 -RA BR FEW005 SCT020 OVC033 05/03 Q1024 NOSIG

Hora: 15:23 (07:23 UTC)

Previsão

O boletim foi feito há 4 horas e 11 minutos, às 03:12 UTC
Previsão válida de 10 às 06 UTC a 11 às 06 UTC
Vento 6 kt de nordeste
Visibilidade: 5000 m
Poucas nuvensa uma altura de 800 ft
Nuvens dispersasa uma altura de 2000 ft
Encobertoa uma altura de 4000 ft
chuva fraca, neblina

TAF: ZGKL 100312Z 1006/1106 05003MPS 5000 -RA BR FEW008 SCT020 OVC040 TX06/1007Z TN03/1022Z

Observações e previsões do tempo de mais de 4000 aeroportos (mensagens METAR e TAF).

As estações disponíveis são os pontos amarelos e vermelhos sobre o mapa.

Mova o rato sobre o mapa para ver o nome da estação.

Depois clique no ponto para visualizar as observações e previsões meteorológicas.

Para alterar o mapa : clique nos botões verdes com uma cruz preta para aumentar o zoom; no botão verde com uma pitada de zoom; ou nas setas verdes para mapas adjacentes.


METAR-TAF: